Time;durP1;ratioP1;P1;durP2;ratioP2;P2;SDS_P1;SDS_P2;PMS_P1;PMS_P2;Temp;Humidity;BMP_temperature;BMP_pressure;BME280_temperature;BME280_humidity;BME280_pressure;Samples;Min_cycle;Max_cycle;Signal;HPM_P1;HPM_P2
2022/04/03 00:00:58;;;;;;;;;13.33;13.00;;;;;1.82;95.67;99072.56;5016234;28;45319;-89
2022/04/03 00:03:24;;;;;;;;;8.67;7.33;;;;;1.86;96.76;99050.00;5014628;28;45421;-89
2022/04/03 00:05:49;;;;;;;;;11.00;10.00;;;;;1.85;96.18;99059.53;5009796;28;45255;-89
2022/04/03 00:08:15;;;;;;;;;16.33;13.67;;;;;1.84;97.38;99067.38;5030243;28;47573;-89
2022/04/03 00:10:44;;;;;;;;;13.67;9.00;;;;;1.86;98.63;99050.00;5016560;28;45413;-88
2022/04/03 00:13:09;;;;;;;;;7.67;6.33;;;;;1.85;98.01;99069.94;5016210;28;45427;-89
2022/04/03 00:15:41;;;;;;;;;14.33;13.00;;;;;1.88;97.59;99071.66;5048685;28;45622;-89
2022/04/03 00:18:07;;;;;;;;;15.33;13.67;;;;;1.86;97.04;99063.00;5015833;28;46345;-89
2022/04/03 00:20:33;;;;;;;;;10.00;10.00;;;;;1.88;93.76;99088.09;4997972;28;45320;-89
2022/04/03 00:22:58;;;;;;;;;14.67;12.67;;;;;1.89;94.27;99065.56;5003410;28;45625;-90
2022/04/03 00:25:24;;;;;;;;;13.00;10.00;;;;;1.88;96.04;99062.13;5019530;28;45413;-91
2022/04/03 00:27:49;;;;;;;;;13.00;13.00;;;;;1.90;95.82;99062.09;5016096;28;45467;-90
2022/04/03 00:30:16;;;;;;;;;12.67;9.33;;;;;1.88;96.16;99062.13;5014822;28;45481;-89
2022/04/03 00:32:42;;;;;;;;;14.67;13.00;;;;;1.90;92.75;99070.78;5015320;28;45271;-89
2022/04/03 00:35:07;;;;;;;;;10.00;10.00;;;;;1.89;96.14;99062.97;5013542;28;45396;-90
2022/04/03 00:37:33;;;;;;;;;12.00;11.00;;;;;1.87;98.74;99056.91;5014418;28;46971;-89
2022/04/03 00:39:59;;;;;;;;;13.33;11.00;;;;;1.86;94.54;99053.47;5029946;28;45526;-89
2022/04/03 00:42:25;;;;;;;;;8.33;8.33;;;;;1.89;97.03;99070.78;5013827;28;45540;-90
2022/04/03 00:44:50;;;;;;;;;18.00;16.00;;;;;1.84;94.24;99067.38;5015626;28;45481;-90
2022/04/03 00:47:20;;;;;;;;;11.00;11.00;;;;;1.85;94.30;99095.91;5017716;28;47456;-90
2022/04/03 00:49:47;;;;;;;;;9.67;8.67;;;;;1.85;95.00;99079.47;5036279;28;45475;-90
2022/04/03 00:52:12;;;;;;;;;15.67;14.33;;;;;1.84;92.46;99057.84;5014872;28;45463;-90
2022/04/03 00:54:38;;;;;;;;;19.33;17.00;;;;;1.87;93.04;99065.59;5031439;28;45322;-88
2022/04/03 00:57:06;;;;;;;;;16.67;11.67;;;;;1.86;91.96;99063.84;5015470;28;46710;-90
2022/04/03 00:59:32;;;;;;;;;13.00;10.00;;;;;1.86;96.99;99074.25;5028717;28;45368;-89
2022/04/03 01:01:57;;;;;;;;;6.33;6.33;;;;;1.86;95.59;99083.78;5033254;28;45407;-89
2022/04/03 01:04:23;;;;;;;;;10.00;10.00;;;;;1.84;96.90;99095.97;5030723;28;45393;-89
2022/04/03 01:06:48;;;;;;;;;17.33;14.00;;;;;1.85;97.97;99074.25;5027343;28;46783;-89
2022/04/03 01:09:14;;;;;;;;;17.00;12.67;;;;;1.87;93.41;99072.53;5047007;28;45698;-88
2022/04/03 01:11:40;;;;;;;;;11.33;11.33;;;;;1.88;91.77;99063.84;5030668;28;45483;-88
2022/04/03 01:14:06;;;;;;;;;17.67;13.33;;;;;1.87;93.52;99050.00;5030234;28;45560;-88
2022/04/03 01:16:33;;;;;;;;;21.33;17.67;;;;;1.86;95.84;99039.59;5022584;28;46955;-89
2022/04/03 01:18:58;;;;;;;;;14.00;14.00;;;;;1.84;96.98;99060.44;5030188;28;45484;-89
2022/04/03 01:21:24;;;;;;;;;17.00;14.00;;;;;1.85;92.35;99040.47;5030504;28;45326;-88
2022/04/03 01:23:50;;;;;;;;;11.67;11.67;;;;;1.84;92.91;99055.25;5015020;28;45366;-90
2022/04/03 01:26:16;;;;;;;;;15.33;13.00;;;;;1.86;94.07;99039.59;5030967;28;47260;-89
2022/04/03 01:28:42;;;;;;;;;11.67;10.33;;;;;1.79;95.50;99057.00;5031549;28;45404;-88
2022/04/03 01:31:08;;;;;;;;;9.00;7.33;;;;;1.80;95.00;99037.06;5033915;28;45448;-88
2022/04/03 01:33:33;;;;;;;;;13.00;11.67;;;;;1.78;94.70;99052.66;5050961;28;45495;-88
2022/04/03 01:35:59;;;;;;;;;17.33;17.33;;;;;1.80;93.42;99043.13;5051389;28;47705;-90
2022/04/03 01:38:24;;;;;;;;;7.00;6.00;;;;;1.75;97.42;99044.88;5034205;28;45271;-90
2022/04/03 01:40:50;;;;;;;;;11.67;11.67;;;;;1.71;95.54;99044.03;5034933;28;45371;-89
2022/04/03 01:43:15;;;;;;;;;6.33;6.33;;;;;1.72;91.95;99050.94;5021658;28;45430;-90
2022/04/03 01:45:41;;;;;;;;;20.67;15.67;;;;;1.73;95.92;99049.22;5018097;28;46610;-89
2022/04/03 01:48:08;;;;;;;;;12.67;12.67;;;;;1.73;94.73;99049.22;5051159;28;45389;-89
2022/04/03 01:50:34;;;;;;;;;14.67;10.33;;;;;1.68;95.77;99038.84;5022861;28;45531;-89
2022/04/03 01:53:00;;;;;;;;;21.33;20.33;;;;;1.71;93.10;99053.56;5017107;28;45559;-88
2022/04/03 01:55:28;;;;;;;;;13.67;12.00;;;;;1.66;95.75;99043.22;5033797;28;47256;-89
2022/04/03 01:57:54;;;;;;;;;9.00;9.00;;;;;1.64;97.66;99044.97;5016023;28;45429;-89
2022/04/03 02:00:20;;;;;;;;;19.00;17.00;;;;;1.61;92.85;99054.50;5022444;28;45429;-88
2022/04/03 02:02:45;;;;;;;;;13.00;12.00;;;;;1.60;90.99;99039.78;5016549;28;45572;-89
2022/04/03 02:05:11;;;;;;;;;7.33;5.67;;;;;1.63;95.28;99053.63;5050084;28;46852;-88
2022/04/03 02:07:38;;;;;;;;;13.67;9.33;;;;;1.60;96.96;99052.75;5016510;28;45404;-88
2022/04/03 02:10:08;;;;;;;;;8.33;8.33;;;;;1.56;96.24;99049.31;5014914;28;45374;-87
2022/04/03 02:12:35;;;;;;;;;19.33;18.67;;;;;1.55;92.48;99032.00;5050047;28;45543;-89
2022/04/03 02:15:00;;;;;;;;;4.67;3.33;;;;;1.56;93.52;99041.53;5007260;28;46667;-89
2022/04/03 02:17:26;;;;;;;;;15.00;13.00;;;;;1.57;90.60;99035.44;5017845;28;45320;-89
2022/04/03 02:19:51;;;;;;;;;21.33;19.33;;;;;1.60;90.57;99032.84;5033620;28;45428;-88
2022/04/03 02:22:17;;;;;;;;;14.00;12.00;;;;;1.58;92.64;99036.31;5033330;28;45329;-89
2022/04/03 02:24:42;;;;;;;;;8.33;6.33;;;;;1.56;94.92;99044.13;5018577;28;45244;-89
2022/04/03 02:27:08;;;;;;;;;8.67;7.67;;;;;1.60;90.40;99029.38;5019208;28;45309;-90
2022/04/03 02:29:33;;;;;;;;;13.67;10.67;;;;;1.55;92.46;99049.31;5018202;28;45440;-89
2022/04/03 02:31:59;;;;;;;;;17.67;11.67;;;;;1.55;92.08;99041.53;5050173;28;45408;-90
2022/04/03 02:34:29;;;;;;;;;16.50;13.00;;;;;1.52;91.91;99034.59;5033429;28;47112;-90
2022/04/03 02:36:54;;;;;;;;;17.00;15.67;;;;;1.54;93.01;99021.63;5033812;28;45946;-89
2022/04/03 02:39:20;;;;;;;;;11.00;9.33;;;;;1.52;91.01;99052.78;5017247;28;45401;-91
2022/04/03 02:41:47;;;;;;;;;11.00;9.00;;;;;1.55;90.06;99057.13;5017734;28;45362;-91
2022/04/03 02:44:13;;;;;;;;;21.67;21.67;;;;;1.53;88.74;99048.47;5034042;28;48151;-90
2022/04/03 02:46:39;;;;;;;;;15.67;12.67;;;;;1.51;93.38;99037.25;5033652;28;45354;-90
2022/04/03 02:49:05;;;;;;;;;8.33;8.33;;;;;1.48;91.89;99037.25;5042940;28;45184;-90
2022/04/03 02:51:30;;;;;;;;;18.67;17.00;;;;;1.46;93.52;99037.25;5025716;28;45367;-89
2022/04/03 02:53:56;;;;;;;;;11.67;11.67;;;;;1.49;90.51;99033.78;5034337;28;46722;-91
2022/04/03 02:56:21;;;;;;;;;7.33;6.00;;;;;1.46;91.43;99033.78;5035624;28;45492;-90
2022/04/03 02:58:48;;;;;;;;;20.67;17.67;;;;;1.46;93.17;99046.78;5020802;28;45342;-90
2022/04/03 03:01:13;;;;;;;;;5.33;5.00;;;;;1.43;89.47;99046.78;5030373;28;45398;-89
2022/04/03 03:03:39;;;;;;;;;13.00;13.00;;;;;1.45;92.07;99043.31;5021039;28;46833;-90
2022/04/03 03:06:04;;;;;;;;;16.67;16.00;;;;;1.43;93.28;99042.47;5050692;28;45513;-90
2022/04/03 03:08:30;;;;;;;;;18.33;17.67;;;;;1.39;95.28;99053.72;5033772;28;45445;-91
2022/04/03 03:10:55;;;;;;;;;19.00;18.00;;;;;1.38;95.10;99060.66;5017714;28;45359;-90
2022/04/03 03:13:21;;;;;;;;;20.33;14.33;;;;;1.38;96.57;99071.03;5033115;28;47134;-92
2022/04/03 03:15:46;;;;;;;;;21.33;17.00;;;;;1.38;94.32;99055.47;5016573;28;45290;-91
2022/04/03 03:18:12;;;;;;;;;9.33;8.33;;;;;1.39;94.95;99064.97;5028231;28;45377;-91
2022/04/03 03:20:37;;;;;;;;;18.33;12.33;;;;;1.39;95.06;99072.78;4997522;28;45398;-90
2022/04/03 03:23:03;;;;;;;;;25.00;19.33;;;;;1.42;95.57;99065.84;5005269;28;46969;-90
2022/04/03 03:25:29;;;;;;;;;19.67;17.67;;;;;1.43;93.55;99090.94;5032109;28;45413;-89
2022/04/03 03:27:54;;;;;;;;;8.33;6.33;;;;;1.45;93.20;99071.03;5032079;28;45513;-90
2022/04/03 03:30:20;;;;;;;;;18.00;13.33;;;;;1.45;95.91;99060.63;5033012;28;45329;-89
2022/04/03 03:32:46;;;;;;;;;9.00;6.00;;;;;1.44;93.67;99058.91;5018423;28;46825;-91
2022/04/03 03:35:12;;;;;;;;;18.33;13.00;;;;;1.44;95.20;99088.34;5032838;28;45245;-91
2022/04/03 03:37:38;;;;;;;;;16.67;11.33;;;;;1.45;96.56;99055.44;5032627;28;45459;-90
2022/04/03 03:40:06;;;;;;;;;15.67;10.00;;;;;1.47;94.33;99064.97;5017469;28;45247;-91
2022/04/03 03:42:32;;;;;;;;;17.00;16.67;;;;;1.48;95.33;99068.44;5017406;28;46097;-90
2022/04/03 03:44:59;;;;;;;;;15.67;15.67;;;;;1.48;97.02;99066.69;5017023;28;45330;-90
2022/04/03 03:47:24;;;;;;;;;16.67;9.33;;;;;1.48;97.16;99065.81;5017198;28;45386;-90
2022/04/03 03:49:50;;;;;;;;;22.67;18.33;;;;;1.49;91.21;99084.00;5017555;28;45449;-91
2022/04/03 03:52:15;;;;;;;;;13.00;11.33;;;;;1.48;95.85;99066.69;5048123;28;47903;-90
2022/04/03 03:54:41;;;;;;;;;13.33;10.33;;;;;1.49;93.74;99059.75;5016742;28;45324;-89
2022/04/03 03:57:07;;;;;;;;;5.00;5.00;;;;;1.48;95.76;99077.09;5016966;28;45292;-90
2022/04/03 03:59:32;;;;;;;;;22.67;19.67;;;;;1.50;93.11;99075.34;5016569;28;45511;-90
2022/04/03 04:01:58;;;;;;;;;22.00;16.33;;;;;1.52;95.32;99083.09;5016963;28;46236;-89
2022/04/03 04:04:23;;;;;;;;;18.00;14.33;;;;;1.50;97.26;99083.13;5032732;28;45471;-89
2022/04/03 04:06:48;;;;;;;;;17.00;16.67;;;;;1.50;94.02;99072.75;5015584;28;45263;-90
2022/04/03 04:09:14;;;;;;;;;20.00;18.00;;;;;1.53;88.21;99077.03;5048116;28;45372;-90
2022/04/03 04:11:40;;;;;;;;;22.00;20.33;;;;;1.53;92.46;99087.44;5022424;28;47898;-89
2022/04/03 04:14:05;;;;;;;;;17.00;14.67;;;;;1.52;95.73;99088.28;5030953;28;45337;-90
2022/04/03 04:16:31;;;;;;;;;16.67;16.33;;;;;1.51;92.28;99090.03;5016488;28;45278;-89
2022/04/03 04:18:56;;;;;;;;;18.00;18.00;;;;;1.51;92.64;99076.22;5013774;28;46328;-89
2022/04/03 04:21:21;;;;;;;;;18.67;13.00;;;;;1.52;93.28;99091.75;5015565;28;45518;-90
2022/04/03 04:23:47;;;;;;;;;20.67;16.00;;;;;1.51;94.51;99097.81;5043363;28;45505;-89
2022/04/03 04:26:14;;;;;;;;;23.00;18.00;;;;;1.52;92.89;99104.75;5000093;28;45418;-90
2022/04/03 04:28:39;;;;;;;;;11.33;5.67;;;;;1.55;90.17;99085.69;5013453;28;45492;-90
2022/04/03 04:31:04;;;;;;;;;18.00;15.33;;;;;1.53;94.84;99090.03;5016074;28;46446;-89
2022/04/03 04:33:30;;;;;;;;;25.33;17.67;;;;;1.51;92.65;99091.78;5015998;28;45376;-90
2022/04/03 04:35:56;;;;;;;;;25.67;21.00;;;;;1.55;94.74;99098.69;5031354;28;45239;-89
2022/04/03 04:38:21;;;;;;;;;22.33;20.33;;;;;1.55;92.75;99098.69;5044223;28;45504;-89
2022/04/03 04:40:46;;;;;;;;;13.00;11.67;;;;;1.54;91.38;99079.63;5012496;28;47031;-91
2022/04/03 04:43:12;;;;;;;;;20.67;16.33;;;;;1.52;90.31;99104.75;5015101;28;45454;-90
2022/04/03 04:45:37;;;;;;;;;16.00;10.67;;;;;1.55;93.14;99101.28;5030975;28;45412;-89
2022/04/03 04:48:04;;;;;;;;;18.00;18.00;;;;;1.54;91.52;99100.41;5014727;28;45555;-90
2022/04/03 04:50:30;;;;;;;;;16.33;14.33;;;;;1.54;96.26;99090.03;5031941;28;47912;-89
2022/04/03 04:52:57;;;;;;;;;21.00;14.67;;;;;1.53;92.60;99101.28;5041783;28;45484;-91
2022/04/03 04:55:23;;;;;;;;;17.33;11.00;;;;;1.57;91.41;99083.94;5031581;28;45347;-88
2022/04/03 04:57:52;;;;;;;;;28.00;24.33;;;;;1.57;90.90;99096.94;5030937;28;45336;-89
2022/04/03 05:00:20;;;;;;;;;18.67;12.67;;;;;1.56;90.24;99087.41;5031059;28;47414;-89
2022/04/03 05:02:46;;;;;;;;;30.67;26.33;;;;;1.54;90.20;99118.59;5014684;28;45488;-91
2022/04/03 05:05:15;;;;;;;;;21.00;18.67;;;;;1.56;94.33;99105.59;5015857;28;45492;-87
2022/04/03 05:07:42;;;;;;;;;21.33;20.00;;;;;1.54;92.71;99102.16;5014725;28;45564;-89
2022/04/03 05:10:09;;;;;;;;;23.33;21.00;;;;;1.54;90.22;99091.75;5016082;28;45497;-89
2022/04/03 05:12:35;;;;;;;;;26.00;19.67;;;;;1.54;94.15;99110.81;5019835;28;45235;-89
2022/04/03 05:15:01;;;;;;;;;18.67;17.67;;;;;1.54;95.00;99099.53;5016031;28;45598;-90
2022/04/03 05:17:27;;;;;;;;;14.00;12.67;;;;;1.55;92.82;99109.94;5030539;28;45331;-89
2022/04/03 05:19:53;;;;;;;;;22.67;18.00;;;;;1.56;93.91;99096.06;5006020;28;45466;-89
2022/04/03 05:22:23;;;;;;;;;17.33;15.00;;;;;1.57;89.86;99105.59;4995883;28;45435;-90
2022/04/03 05:24:52;;;;;;;;;10.33;9.67;;;;;1.57;89.00;99104.72;5020433;28;45263;-89
2022/04/03 05:27:18;;;;;;;;;18.33;16.67;;;;;1.56;90.16;99116.84;5015868;28;45537;-91
2022/04/03 05:29:44;;;;;;;;;19.00;18.33;;;;;1.59;93.26;99105.59;5015336;28;45333;-88
2022/04/03 05:32:09;;;;;;;;;26.33;22.33;;;;;1.60;94.73;99102.13;5013702;28;45437;-88
2022/04/03 05:34:35;;;;;;;;;16.33;15.00;;;;;1.60;95.40;99108.19;4997998;28;45786;-90
2022/04/03 05:37:00;;;;;;;;;21.33;17.67;;;;;1.59;92.71;99109.06;4997229;28;45472;-89
2022/04/03 05:39:26;;;;;;;;;24.33;21.00;;;;;1.60;95.44;99117.72;5013737;28;45997;-90
2022/04/03 05:41:54;;;;;;;;;27.67;22.00;;;;;1.61;95.44;99111.66;5015796;28;45220;-90
2022/04/03 05:44:20;;;;;;;;;27.00;20.00;;;;;1.62;97.74;99118.56;5015494;28;45439;-88
2022/04/03 05:46:45;;;;;;;;;13.67;9.00;;;;;1.62;93.79;99122.03;5011787;28;45251;-88
2022/04/03 05:49:10;;;;;;;;;19.00;18.33;;;;;1.64;96.38;99125.50;5016084;28;46136;-90
2022/04/03 05:51:37;;;;;;;;;26.67;20.33;;;;;1.60;89.96;99126.38;5030968;28;45380;-90
2022/04/03 05:54:03;;;;;;;;;12.67;12.67;;;;;1.60;93.95;99128.09;5015364;28;45324;-91
2022/04/03 05:56:32;;;;;;;;;14.33;12.33;;;;;1.61;93.62;99155.81;5015319;28;45553;-89
2022/04/03 05:58:58;;;;;;;;;21.00;17.33;;;;;1.59;94.73;99123.78;5013647;28;47359;-89
2022/04/03 06:01:24;;;;;;;;;31.67;27.67;;;;;1.60;93.42;99128.97;5005897;28;45379;-90
2022/04/03 06:03:50;;;;;;;;;33.00;26.67;;;;;1.62;88.85;99128.97;5014357;28;45461;-89
2022/04/03 06:06:16;;;;;;;;;28.67;24.00;;;;;1.64;94.19;99129.84;5046730;28;45438;-89
2022/04/03 06:08:43;;;;;;;;;20.67;13.33;;;;;1.64;94.40;99167.06;5014928;28;45550;-89
2022/04/03 06:11:08;;;;;;;;;33.33;26.33;;;;;1.65;94.13;99131.56;5012188;28;45508;-90
2022/04/03 06:13:34;;;;;;;;;14.00;10.00;;;;;1.67;95.15;99148.00;5011022;28;45415;-89
2022/04/03 06:15:59;;;;;;;;;24.33;22.67;;;;;1.69;94.85;99133.25;5030405;28;45459;-90
2022/04/03 06:18:25;;;;;;;;;29.33;21.00;;;;;1.71;92.47;99153.16;5021076;28;46094;-90
2022/04/03 06:20:51;;;;;;;;;26.67;22.33;;;;;1.72;95.87;99147.09;5020163;28;45234;-89
2022/04/03 06:23:19;;;;;;;;;23.33;20.67;;;;;1.75;95.22;99149.69;5014559;28;45176;-89
2022/04/03 06:25:46;;;;;;;;;20.33;18.00;;;;;1.79;94.95;99160.06;5020343;28;45455;-90
2022/04/03 06:28:12;;;;;;;;;19.33;17.00;;;;;1.84;96.53;99147.94;5027512;28;48508;-90
2022/04/03 06:30:38;;;;;;;;;16.33;14.00;;;;;1.85;97.39;99178.22;5007759;28;45342;-90
2022/04/03 06:33:04;;;;;;;;;17.00;13.67;;;;;1.83;95.93;99162.66;5041415;28;45448;-90
2022/04/03 06:35:30;;;;;;;;;24.00;22.00;;;;;1.85;95.77;99154.84;5050411;28;45355;-91
2022/04/03 06:37:56;;;;;;;;;25.00;20.33;;;;;1.85;96.48;99155.69;5018092;28;45412;-75
2022/04/03 06:40:23;;;;;;;;;23.00;21.00;;;;;1.86;96.00;99154.81;5015975;28;45291;-75
2022/04/03 06:42:48;;;;;;;;;22.00;21.33;;;;;1.87;97.30;99158.28;5007116;28;45401;-75
2022/04/03 06:45:15;;;;;;;;;26.00;21.00;;;;;1.89;93.83;99175.63;5013708;28;45512;-75
2022/04/03 06:47:41;;;;;;;;;22.00;18.00;;;;;1.87;95.34;99168.69;5015328;28;45657;-75
2022/04/03 06:50:08;;;;;;;;;21.33;18.33;;;;;1.86;97.24;99169.56;5007916;28;45355;-75
2022/04/03 06:52:34;;;;;;;;;23.67;19.33;;;;;1.86;93.78;99178.22;5015514;28;45394;-75
2022/04/03 06:55:00;;;;;;;;;26.00;23.00;;;;;1.87;96.98;99173.88;5014091;28;45579;-75
2022/04/03 06:57:25;;;;;;;;;26.33;18.33;;;;;1.86;100.00;99175.63;5015814;28;45897;-75
2022/04/03 06:59:51;;;;;;;;;25.67;24.33;;;;;1.95;100.00;99179.94;5011503;28;45459;-63
2022/04/03 07:02:16;;;;;;;;;24.00;20.67;;;;;2.05;100.00;99184.19;5015706;28;45777;-62
2022/04/03 07:04:43;;;;;;;;;25.67;22.00;;;;;2.07;98.19;99182.47;5012858;28;45508;-62
2022/04/03 07:07:08;;;;;;;;;36.00;27.33;;;;;2.06;96.75;99193.72;5014615;28;47036;-62
2022/04/03 07:09:40;;;;;;;;;28.67;24.33;;;;;2.07;99.13;99183.31;5011298;28;45363;-62
2022/04/03 07:12:07;;;;;;;;;23.33;19.33;;;;;2.09;94.69;99197.19;5044909;28;45348;-62
2022/04/03 07:14:32;;;;;;;;;29.67;24.67;;;;;2.05;99.19;99187.66;5013231;28;45398;-62
2022/04/03 07:16:58;;;;;;;;;18.00;17.00;;;;;2.08;95.34;99187.66;5046119;28;46803;-62
2022/04/03 07:19:23;;;;;;;;;29.67;24.67;;;;;2.07;99.54;99183.31;5013021;28;45174;-62
2022/04/03 07:21:50;;;;;;;;;18.67;18.33;;;;;2.08;94.68;99199.78;5016672;28;45447;-62
2022/04/03 07:24:17;;;;;;;;;33.67;25.67;;;;;2.09;93.54;99198.91;5013672;28;45594;-62
2022/04/03 07:26:42;;;;;;;;;19.00;15.00;;;;;2.10;95.27;99208.44;5006175;28;46370;-62
2022/04/03 07:29:08;;;;;;;;;27.33;25.00;;;;;2.12;95.24;99204.13;5012788;28;45421;-63
2022/04/03 07:31:33;;;;;;;;;26.33;22.67;;;;;2.18;99.11;99211.88;5014686;28;45472;-62
2022/04/03 07:33:59;;;;;;;;;21.67;18.00;;;;;2.23;94.84;99212.72;5013740;28;45588;-63
2022/04/03 07:36:24;;;;;;;;;13.00;13.00;;;;;2.26;98.56;99211.84;5004197;28;46136;-62
2022/04/03 07:38:52;;;;;;;;;27.33;25.33;;;;;2.30;96.83;99208.34;5010849;28;45562;-63
2022/04/03 07:41:19;;;;;;;;;35.00;27.00;;;;;2.35;97.50;99217.84;5014267;28;45492;-63
2022/04/03 07:43:45;;;;;;;;;28.00;23.33;;;;;2.39;94.93;99213.50;5011995;28;45747;-63
2022/04/03 07:46:15;;;;;;;;;29.33;25.67;;;;;2.42;100.00;99224.75;5009596;28;45473;-63
2022/04/03 07:48:40;;;;;;;;;27.00;20.33;;;;;2.47;97.84;99247.28;5011875;28;45587;-63
2022/04/03 07:51:05;;;;;;;;;21.00;18.67;;;;;2.51;97.06;99230.78;5008327;28;45899;-63
2022/04/03 07:53:31;;;;;;;;;22.33;20.33;;;;;2.54;98.52;99231.59;5011927;28;45983;-63
2022/04/03 07:55:56;;;;;;;;;18.00;18.00;;;;;2.60;97.81;99228.13;5012875;28;45741;-63
2022/04/03 07:58:22;;;;;;;;;21.00;18.00;;;;;2.66;99.53;99235.91;5013620;28;45385;-63
2022/04/03 08:00:47;;;;;;;;;24.00;21.67;;;;;2.71;95.28;99241.91;5040896;28;45520;-63
2022/04/03 08:03:13;;;;;;;;;17.33;17.00;;;;;2.74;99.18;99236.69;5014766;28;45398;-62
2022/04/03 08:05:38;;;;;;;;;25.67;23.33;;;;;2.79;99.57;99237.53;5008787;28;46403;-63
2022/04/03 08:08:04;;;;;;;;;23.33;23.33;;;;;2.84;98.40;99240.97;5040029;28;45454;-63
2022/04/03 08:10:29;;;;;;;;;15.00;10.00;;;;;2.88;94.60;99240.06;5011096;28;45461;-62
2022/04/03 08:12:54;;;;;;;;;30.33;25.33;;;;;2.92;95.17;99248.72;5014093;28;45406;-63
2022/04/03 08:15:20;;;;;;;;;28.67;22.00;;;;;2.98;97.59;99252.16;5000167;28;45530;-63
2022/04/03 08:17:46;;;;;;;;;25.67;23.00;;;;;3.01;94.15;99249.53;5012369;28;46009;-63
2022/04/03 08:20:17;;;;;;;;;29.67;27.33;;;;;3.04;97.31;99256.41;5026803;28;45623;-63
2022/04/03 08:22:44;;;;;;;;;20.33;18.67;;;;;3.06;98.33;99255.53;5013089;28;45496;-62
2022/04/03 08:25:10;;;;;;;;;25.67;21.33;;;;;3.11;96.21;99253.78;5007093;28;45588;-62
2022/04/03 08:27:53;;;;;;;;;30.00;19.33;;;;;3.15;94.29;99267.63;5006110;28;45587;-63
2022/04/03 08:30:26;;;;;;;;;24.33;23.67;;;;;3.18;96.83;99272.84;5013519;28;45473;-62
2022/04/03 08:32:53;;;;;;;;;33.00;28.00;;;;;3.19;97.83;99274.53;5018596;28;46313;-63
2022/04/03 08:35:20;;;;;;;;;24.00;23.33;;;;;3.22;95.17;99274.50;5005786;28;45633;-62
2022/04/03 08:37:47;;;;;;;;;17.00;14.33;;;;;3.24;94.08;99279.72;5000844;28;45508;-63
2022/04/03 08:40:13;;;;;;;;;28.67;25.00;;;;;3.27;98.94;99275.34;5009322;28;45513;-63
2022/04/03 08:42:39;;;;;;;;;22.67;21.00;;;;;3.34;99.00;99277.03;5025563;28;45521;-62
2022/04/03 08:45:07;;;;;;;;;27.33;21.00;;;;;3.40;96.00;99276.09;5009542;28;45459;-62
2022/04/03 08:47:43;;;;;;;;;29.00;26.67;;;;;3.43;94.40;99282.16;5010536;28;45350;-62
2022/04/03 08:50:08;;;;;;;;;23.00;21.67;;;;;3.46;92.92;99279.53;5010376;28;45524;-62
2022/04/03 08:52:36;;;;;;;;;22.00;21.00;;;;;3.50;94.83;99288.19;5011924;28;45496;-62
2022/04/03 08:55:04;;;;;;;;;23.67;20.67;;;;;3.54;91.21;99291.59;5014061;28;46050;-62
2022/04/03 08:57:30;;;;;;;;;25.67;23.33;;;;;3.55;94.06;99293.34;5012852;28;45493;-62
2022/04/03 08:59:56;;;;;;;;;22.00;20.00;;;;;3.57;87.82;99294.19;5011559;28;45770;-62
2022/04/03 09:02:21;;;;;;;;;26.00;21.33;;;;;3.58;88.66;99303.72;5008139;28;45501;-62
2022/04/03 09:04:47;;;;;;;;;22.00;22.00;;;;;3.56;85.70;99301.13;5007289;28;45398;-62
2022/04/03 09:07:19;;;;;;;;;25.67;20.00;;;;;3.56;95.83;99300.28;5012071;28;45424;-62
2022/04/03 09:09:55;;;;;;;;;24.00;22.67;;;;;3.58;92.58;99295.91;5008444;28;45514;-63
2022/04/03 09:12:20;;;;;;;;;23.67;19.67;;;;;3.60;94.13;99308.06;5012319;28;45495;-62
2022/04/03 09:14:52;;;;;;;;;27.67;23.00;;;;;3.58;94.77;99302.00;5007131;28;45429;-63
2022/04/03 09:17:38;;;;;;;;;23.67;21.33;;;;;3.60;89.77;99300.25;5012910;28;45521;-63
2022/04/03 09:20:06;;;;;;;;;26.00;23.00;;;;;3.61;90.56;99317.63;5006669;28;45466;-63
2022/04/03 09:22:36;;;;;;;;;24.67;21.00;;;;;3.61;85.58;99304.56;5011736;28;45417;-62
2022/04/03 09:25:13;;;;;;;;;31.33;26.33;;;;;3.62;91.59;99303.69;5006777;28;45510;-63
2022/04/03 09:28:05;;;;;;;;;27.00;24.33;;;;;3.65;95.84;99305.41;5013587;28;45472;-63
2022/04/03 09:30:33;;;;;;;;;25.33;23.33;;;;;3.68;93.75;99311.47;5005788;28;45488;-63
2022/04/03 09:33:00;;;;;;;;;30.33;24.67;;;;;3.68;89.25;99318.44;5013249;28;45469;-63
2022/04/03 09:35:28;;;;;;;;;21.67;18.33;;;;;3.67;91.86;99307.13;5005544;28;45584;-63
2022/04/03 09:38:08;;;;;;;;;27.33;24.67;;;;;3.66;94.41;99313.22;5011633;28;45412;-62
2022/04/03 09:40:35;;;;;;;;;29.33;25.67;;;;;3.65;91.93;99316.72;5018633;28;45460;-63
2022/04/03 09:43:21;;;;;;;;;26.00;20.33;;;;;3.62;87.38;99319.34;5013268;28;45513;-63
2022/04/03 09:45:51;;;;;;;;;26.67;20.33;;;;;3.60;89.07;99322.84;5022479;28;48135;-62
2022/04/03 09:48:23;;;;;;;;;23.00;20.00;;;;;3.60;93.74;99320.22;5012749;28;45586;-62
2022/04/03 09:51:05;;;;;;;;;30.00;24.33;;;;;3.60;92.87;99326.31;5009317;28;45521;-62
2022/04/03 09:53:45;;;;;;;;;21.33;19.33;;;;;3.62;94.73;99321.09;5045473;28;45561;-63
2022/04/03 09:56:34;;;;;;;;;20.00;19.67;;;;;3.62;93.55;99319.34;5014075;28;45606;-63
2022/04/03 09:59:03;;;;;;;;;16.33;15.33;;;;;3.62;90.76;99323.69;5012733;28;45485;-63
2022/04/03 10:01:30;;;;;;;;;24.00;21.67;;;;;3.63;93.92;99326.28;5021228;28;45438;-63
2022/04/03 10:03:58;;;;;;;;;30.33;24.33;;;;;3.65;91.10;99324.53;5013492;28;45612;-63
2022/04/03 10:06:24;;;;;;;;;25.67;24.00;;;;;3.64;89.28;99324.53;5042261;28;46722;-63
2022/04/03 10:08:50;;;;;;;;;24.00;19.00;;;;;3.65;89.20;99315.84;5016730;28;45511;-63
2022/04/03 10:11:16;;;;;;;;;21.67;19.33;;;;;3.67;91.24;99330.59;5014106;28;45548;-62
2022/04/03 10:13:45;;;;;;;;;20.33;16.00;;;;;3.72;88.28;99331.41;5013313;28;45547;-63
2022/04/03 10:16:11;;;;;;;;;27.33;24.33;;;;;3.72;84.41;99326.19;5007306;28;45494;-63
2022/04/03 10:18:39;;;;;;;;;23.33;20.67;;;;;3.76;87.70;99324.41;5014684;28;45503;-62
2022/04/03 10:21:14;;;;;;;;;25.67;19.33;;;;;3.82;94.79;99325.25;5014032;28;45499;-63
2022/04/03 10:23:42;;;;;;;;;24.00;20.67;;;;;3.88;85.34;99326.91;5014396;28;45645;-63
2022/04/03 10:26:11;;;;;;;;;24.33;20.00;;;;;3.98;89.42;99335.50;5011151;28;46303;-63
2022/04/03 10:28:40;;;;;;;;;23.33;22.00;;;;;4.05;93.87;99322.38;5013505;28;45483;-63
2022/04/03 10:31:08;;;;;;;;;24.67;21.67;;;;;4.13;89.94;99328.38;5007574;28;45475;-63
2022/04/03 10:33:38;;;;;;;;;26.00;21.33;;;;;4.18;85.24;99323.13;5013195;28;45464;-63
2022/04/03 10:36:05;;;;;;;;;22.67;21.33;;;;;4.22;89.57;99324.78;5012268;28;46574;-62
2022/04/03 10:38:58;;;;;;;;;23.33;21.33;;;;;4.28;87.98;99324.75;5014209;28;45602;-63
2022/04/03 10:41:31;;;;;;;;;24.00;19.67;;;;;4.34;90.67;99316.84;5012688;28;45457;-63
2022/04/03 10:44:14;;;;;;;;;20.67;20.00;;;;;4.40;89.14;99332.41;5012941;28;45513;-62
2022/04/03 10:47:01;;;;;;;;;25.00;20.67;;;;;4.45;91.33;99319.31;5010302;28;45497;-61
2022/04/03 10:50:08;;;;;;;;;22.67;21.00;;;;;4.48;91.70;99320.16;5011301;28;45715;-64
2022/04/03 10:52:37;;;;;;;;;25.33;21.33;;;;;4.54;91.63;99307.00;5006447;28;45486;-66
2022/04/03 10:55:17;;;;;;;;;26.00;23.67;;;;;4.63;90.44;99316.47;5003472;28;45328;-63
2022/04/03 10:57:45;;;;;;;;;26.00;21.67;;;;;4.69;88.72;99310.31;5031730;28;47200;-64
2022/04/03 11:00:14;;;;;;;;;23.00;20.33;;;;;4.74;89.43;99318.94;5013362;28;45493;-63
2022/04/03 11:02:42;;;;;;;;;24.00;20.67;;;;;4.79;87.06;99317.13;5013098;28;45441;-64
2022/04/03 11:05:29;;;;;;;;;20.00;20.00;;;;;4.84;88.58;99307.50;5010532;28;45668;-63
2022/04/03 11:08:00;;;;;;;;;19.67;19.33;;;;;4.87;80.48;99316.13;5014204;28;45484;-63
2022/04/03 11:10:45;;;;;;;;;20.00;16.33;;;;;4.90;81.57;99310.88;5017874;28;45368;-63
2022/04/03 11:13:13;;;;;;;;;20.67;18.67;;;;;4.94;87.33;99309.06;5014662;28;45346;-63
2022/04/03 11:15:57;;;;;;;;;27.00;22.00;;;;;5.01;82.47;99302.03;5015046;28;45449;-63
2022/04/03 11:18:42;;;;;;;;;20.67;14.33;;;;;5.07;89.51;99305.38;5014366;28;46129;-63
2022/04/03 11:21:11;;;;;;;;;20.67;11.67;;;;;5.13;85.76;99296.59;5013835;28;45489;-63
2022/04/03 11:23:41;;;;;;;;;22.00;21.00;;;;;5.16;81.68;99299.19;5014696;28;45465;-63
2022/04/03 11:26:07;;;;;;;;;21.33;19.67;;;;;5.18;86.21;99300.88;5014337;28;45533;-63
2022/04/03 11:28:36;;;;;;;;;18.33;18.33;;;;;5.22;85.69;99288.59;5015300;28;46141;-63